Gambier, OH (43022)

6:55 AM EDT on August 31, 2014 (GMT -0400)
Apple Valley Lake | Change Station
CLOSE
Current Station
Personal Weather Station
Location: Howard, OH
Elevation: 1033 ft
Nearby Weather Stations

Elev 1033 ft 40.44 °N, 82.34 °W | Updated 5 minutes ago

Rain
Rain
70.3 °F
Feels Like 70.3 °F
N
0.0
Wind Variable Wind from SE

Today
High -- | Low -- °F
--% Chance of Precip.
Yesterday
High -- | Low -- °F
Precip. -- in
6:55 AM 8:02 PM
Waxing Crescent, 30% visible
Pressure 30.05 in
Visibility 2.5 miles
Clouds Mostly Cloudy 700 ft
Overcast 1800 ft
Dew Point 69 °F
Humidity 97%
Rainfall 0.42 in
Snow Depth Not available.
UV 0 out of 12
Pollen 10.60 out of 12
Ozone Good
PM2.5 Moderate
Flu Activity Not available.
METAR K4I3 311036Z AUTO 19003KT 2 1/2SM BR BKN007 OVC018 20/20 A3005 RMK AO2

More Conditions Fewer Conditions

Pressure 30.05 in
Visibility 2.5 miles
Clouds Mostly Cloudy 700 ft
Overcast 1800 ft
Dew Point 69 °F
Humidity 97%
Rainfall 0.42 in
Snow Depth Not available.
UV 0 out of 12
Pollen 10.60 out of 12
Ozone Good
PM2.5 Moderate
Flu Activity Not available.
METAR K4I3 311036Z AUTO 19003KT 2 1/2SM BR BKN007 OVC018 20/20 A3005 RMK AO2

More Conditions Fewer Conditions

10-Day Weather Forecast

Almanac

Astronomy

Aug. 31, 2014 Rise Set
Actual Time 6:55 AM EDT 8:02 PM EDT
Civil Twilight 6:27 AM EDT 8:30 PM EDT
Nautical Twilight 5:54 AM EDT 9:04 PM EDT
Astronomical Twilight 5:19 AM EDT 9:38 PM EDT
Moon 12:42 PM EDT 11:15 PM EDT
Length of Visible Light 14h 02m
Length of Day
13h 06m
Tomorrow will be 2m 33s shorter.
Waxing Crescent, 30% of the Moon is Illuminated
Today
Waxing Crescent
Sep 2
First Quarter
Sep 8
Full
Sep 15
Last Quarter
Sep 24
New

Today's Extremes

State Highs State Lows

Community

WunderPhotos

Upload Photos

1,748,837 photos uploaded!

Nearby

Air Quality

  Air Quality AQ Index Pollutant
Yesterday Moderate
PM2.5
Yesterday Good
OZONE
Current Moderate
PM2.5
Current Good
OZONE
Sunday Good
OZONE
Sunday Good
PM2.5
Monday Good
PM2.5
Monday Good
OZONE
Tuesday Good
OZONE
Tuesday Good
PM2.5
Wednesday Moderate
PM2.5
Wednesday Moderate
OZONE
Thursday Moderate
OZONE
Thursday Moderate
PM2.5

Snow Depth

Station Depth Elevation
No new snow has been reported.

Earthquake Activity

City Distance Mag. Time & Date
No recent earthquake activity has been reported nearby.
Minimum magnitude displayed is 2.5.

Coastal Water Temperatures

Place Temperature
No Stations Reporting

Nearby Weather Stations